Time;durP1;ratioP1;P1;durP2;ratioP2;P2;SDS_P1;SDS_P2;PMS_P1;PMS_P2;Temp;Humidity;BMP_temperature;BMP_pressure;BME280_temperature;BME280_humidity;BME280_pressure;Samples;Min_cycle;Max_cycle;Signal;HPM_P1;HPM_P2
2023/09/17 00:00:29;;;;;;;20.73;12.57;;;;;;;;;;5050287;28;20820;-73
2023/09/17 00:02:55;;;;;;;21.15;13.23;;;;;;;;;;5053778;28;20028;-72
2023/09/17 00:05:22;;;;;;;18.95;12.75;;;;;;;;;;5052509;28;20021;-72
2023/09/17 00:07:48;;;;;;;21.77;13.27;;;;;;;;;;5052780;28;20023;-72
2023/09/17 00:10:14;;;;;;;22.25;13.25;;;;;;;;;;5053046;28;20112;-72
2023/09/17 00:12:40;;;;;;;22.73;13.88;;;;;;;;;;5052426;28;20047;-72
2023/09/17 00:15:07;;;;;;;21.20;14.15;;;;;;;;;;5050693;28;20025;-73
2023/09/17 00:17:33;;;;;;;22.83;14.23;;;;;;;;;;5052078;28;20368;-73
2023/09/17 00:19:59;;;;;;;24.58;14.57;;;;;;;;;;5052340;28;20020;-73
2023/09/17 00:22:25;;;;;;;24.27;13.80;;;;;;;;;;5052503;28;20029;-73
2023/09/17 00:24:51;;;;;;;22.15;13.25;;;;;;;;;;5052039;28;20028;-72
2023/09/17 00:27:17;;;;;;;23.20;13.45;;;;;;;;;;5052485;28;20040;-74
2023/09/17 00:29:43;;;;;;;23.35;13.70;;;;;;;;;;5051899;28;20429;-72
2023/09/17 00:32:09;;;;;;;20.77;13.10;;;;;;;;;;5051806;28;20036;-74
2023/09/17 00:34:34;;;;;;;21.80;13.48;;;;;;;;;;5051648;28;20021;-73
2023/09/17 00:37:00;;;;;;;31.52;18.35;;;;;;;;;;5051461;28;20036;-74
2023/09/17 00:39:27;;;;;;;18.73;12.75;;;;;;;;;;5052369;28;20021;-72
2023/09/17 00:41:53;;;;;;;19.08;12.52;;;;;;;;;;5051210;28;20033;-72
2023/09/17 00:44:20;;;;;;;18.27;11.80;;;;;;;;;;5052881;28;20029;-73
2023/09/17 00:46:46;;;;;;;19.10;12.52;;;;;;;;;;5051369;28;20041;-72
2023/09/17 00:49:15;;;;;;;17.10;11.23;;;;;;;;;;5051205;28;20123;-71
2023/09/17 00:51:41;;;;;;;19.88;12.98;;;;;;;;;;5052586;28;20120;-73
2023/09/17 00:54:08;;;;;;;20.80;12.68;;;;;;;;;;5056438;28;20017;-73
2023/09/17 00:56:34;;;;;;;18.90;13.20;;;;;;;;;;5063767;28;20040;-73
2023/09/17 00:59:00;;;;;;;20.40;13.43;;;;;;;;;;5062913;28;20068;-72
2023/09/17 01:01:26;;;;;;;19.75;12.07;;;;;;;;;;5058002;28;20052;-72
2023/09/17 01:03:52;;;;;;;21.77;13.55;;;;;;;;;;5056909;28;20029;-72
2023/09/17 01:06:19;;;;;;;17.70;11.40;;;;;;;;;;5056424;28;20021;-72
2023/09/17 01:08:45;;;;;;;23.02;12.77;;;;;;;;;;5056904;28;20036;-73
2023/09/17 01:11:11;;;;;;;18.25;11.70;;;;;;;;;;5056523;28;20468;-73
2023/09/17 01:13:40;;;;;;;15.65;11.82;;;;;;;;;;5055838;28;20029;-72
2023/09/17 01:16:07;;;;;;;22.05;11.32;;;;;;;;;;5055189;28;20304;-72
2023/09/17 01:18:34;;;;;;;17.05;11.27;;;;;;;;;;5054964;28;20057;-73
2023/09/17 01:21:05;;;;;;;20.80;11.43;;;;;;;;;;5054996;28;20025;-72
2023/09/17 01:23:39;;;;;;;17.17;11.57;;;;;;;;;;5054875;28;20029;-73
2023/09/17 01:26:12;;;;;;;17.88;10.90;;;;;;;;;;5054608;28;20503;-73
2023/09/17 01:28:40;;;;;;;15.10;10.55;;;;;;;;;;5055741;28;20079;-72
2023/09/17 01:31:06;;;;;;;14.07;10.48;;;;;;;;;;5055267;28;20091;-73
2023/09/17 01:33:33;;;;;;;15.20;10.18;;;;;;;;;;5055025;28;20033;-72
2023/09/17 01:35:59;;;;;;;18.13;11.13;;;;;;;;;;5055360;28;20428;-72
2023/09/17 01:38:30;;;;;;;16.17;11.23;;;;;;;;;;5056886;28;20021;-72
2023/09/17 01:40:58;;;;;;;17.52;11.45;;;;;;;;;;5057028;28;20028;-74
2023/09/17 01:43:24;;;;;;;18.63;12.55;;;;;;;;;;5054584;28;20029;-71
2023/09/17 01:45:50;;;;;;;16.98;10.80;;;;;;;;;;5054286;28;20025;-72
2023/09/17 01:48:16;;;;;;;19.13;11.80;;;;;;;;;;5054446;28;20060;-72
2023/09/17 01:50:43;;;;;;;19.55;11.55;;;;;;;;;;5054429;28;20021;-71
2023/09/17 01:53:11;;;;;;;18.63;11.57;;;;;;;;;;5054247;28;20023;-72
2023/09/17 01:55:37;;;;;;;17.52;11.57;;;;;;;;;;5054058;28;20025;-71
2023/09/17 01:58:04;;;;;;;18.60;12.10;;;;;;;;;;5053572;28;20036;-73
2023/09/17 02:00:32;;;;;;;16.25;11.82;;;;;;;;;;5054167;28;20017;-71
2023/09/17 02:02:58;;;;;;;17.20;11.32;;;;;;;;;;5054157;28;20025;-71
2023/09/17 02:05:25;;;;;;;14.88;10.82;;;;;;;;;;5054006;28;20130;-72
2023/09/17 02:07:52;;;;;;;16.48;11.63;;;;;;;;;;5054079;28;20025;-71
2023/09/17 02:10:18;;;;;;;19.10;12.25;;;;;;;;;;5052968;28;20035;-72
2023/09/17 02:12:44;;;;;;;16.67;10.80;;;;;;;;;;5053996;28;20051;-72
2023/09/17 02:15:10;;;;;;;17.80;11.18;;;;;;;;;;5053822;28;20028;-71
2023/09/17 02:17:36;;;;;;;19.23;11.20;;;;;;;;;;5053916;28;20025;-73
2023/09/17 02:20:05;;;;;;;16.02;10.80;;;;;;;;;;5053891;28;20383;-71
2023/09/17 02:22:31;;;;;;;14.75;10.35;;;;;;;;;;5053793;28;20100;-72
2023/09/17 02:24:57;;;;;;;16.75;10.88;;;;;;;;;;5053665;28;20132;-72
2023/09/17 02:27:23;;;;;;;17.45;11.65;;;;;;;;;;5053807;28;20029;-72
2023/09/17 02:29:49;;;;;;;17.33;10.88;;;;;;;;;;5055647;28;20025;-73
2023/09/17 02:32:15;;;;;;;17.65;10.65;;;;;;;;;;5055360;28;20092;-73
2023/09/17 02:34:41;;;;;;;18.15;11.32;;;;;;;;;;5054294;28;20433;-74
2023/09/17 02:37:07;;;;;;;20.25;10.95;;;;;;;;;;5055552;28;20106;-74
2023/09/17 02:39:35;;;;;;;14.98;10.65;;;;;;;;;;5056208;28;20025;-72
2023/09/17 02:42:01;;;;;;;15.27;10.98;;;;;;;;;;5054178;28;20036;-73
2023/09/17 02:44:27;;;;;;;15.82;10.43;;;;;;;;;;5053823;28;20087;-72
2023/09/17 02:46:53;;;;;;;17.52;11.20;;;;;;;;;;5055505;28;20025;-73
2023/09/17 02:49:22;;;;;;;16.50;10.65;;;;;;;;;;5056345;28;20036;-72
2023/09/17 02:51:48;;;;;;;14.82;9.80;;;;;;;;;;5056086;28;20059;-73
2023/09/17 02:54:14;;;;;;;15.77;9.77;;;;;;;;;;5060291;28;20056;-73
2023/09/17 02:56:40;;;;;;;17.77;9.35;;;;;;;;;;5061604;28;20025;-71
2023/09/17 02:59:06;;;;;;;17.38;9.73;;;;;;;;;;5061268;28;20108;-73
2023/09/17 03:01:32;;;;;;;15.52;9.60;;;;;;;;;;5056863;28;20036;-73
2023/09/17 03:03:58;;;;;;;13.82;9.02;;;;;;;;;;5057967;28;20025;-73
2023/09/17 03:06:24;;;;;;;15.23;9.80;;;;;;;;;;5056800;28;20384;-74
2023/09/17 03:08:51;;;;;;;14.88;9.82;;;;;;;;;;5057423;28;20056;-73
2023/09/17 03:11:17;;;;;;;14.82;9.43;;;;;;;;;;5058583;28;20025;-72
2023/09/17 03:13:47;;;;;;;16.17;9.70;;;;;;;;;;5057642;28;20422;-73
2023/09/17 03:16:15;;;;;;;14.15;9.52;;;;;;;;;;5057298;28;20100;-72
2023/09/17 03:18:42;;;;;;;12.57;8.88;;;;;;;;;;5056292;28;20031;-70
2023/09/17 03:21:09;;;;;;;13.85;7.93;;;;;;;;;;5057913;28;20303;-73
2023/09/17 03:23:35;;;;;;;18.05;9.30;;;;;;;;;;5058903;28;20028;-71
2023/09/17 03:26:01;;;;;;;15.57;9.75;;;;;;;;;;5057053;28;20044;-71
2023/09/17 03:28:28;;;;;;;15.88;10.00;;;;;;;;;;5058415;28;20028;-72
2023/09/17 03:30:54;;;;;;;12.55;9.30;;;;;;;;;;5058351;28;20021;-72
2023/09/17 03:33:20;;;;;;;14.90;9.30;;;;;;;;;;5054558;28;20021;-73
2023/09/17 03:35:46;;;;;;;11.82;9.02;;;;;;;;;;5054850;28;20476;-76
2023/09/17 03:38:12;;;;;;;14.52;8.80;;;;;;;;;;5056551;28;20025;-72
2023/09/17 03:40:39;;;;;;;12.27;9.02;;;;;;;;;;5054333;28;20021;-72
2023/09/17 03:43:06;;;;;;;14.43;9.68;;;;;;;;;;5051429;28;20483;-71
2023/09/17 03:45:32;;;;;;;13.20;8.82;;;;;;;;;;5052235;28;20495;-72
2023/09/17 03:47:58;;;;;;;13.38;8.95;;;;;;;;;;5052818;28;20032;-71
2023/09/17 03:50:24;;;;;;;13.13;9.27;;;;;;;;;;5052479;28;20031;-73
2023/09/17 03:52:52;;;;;;;16.63;9.85;;;;;;;;;;5051834;28;20037;-71
2023/09/17 03:55:18;;;;;;;13.77;8.48;;;;;;;;;;5051189;28;20021;-72
2023/09/17 03:57:45;;;;;;;12.57;8.45;;;;;;;;;;5051151;28;20029;-72
2023/09/17 04:00:12;;;;;;;13.63;9.25;;;;;;;;;;5051102;28;20018;-71
2023/09/17 04:02:38;;;;;;;15.93;9.55;;;;;;;;;;5050994;28;20430;-72
2023/09/17 04:05:09;;;;;;;16.00;9.85;;;;;;;;;;5050815;28;20742;-72
2023/09/17 04:07:35;;;;;;;12.57;9.02;;;;;;;;;;5050946;28;20108;-73
2023/09/17 04:10:02;;;;;;;17.08;9.45;;;;;;;;;;5053614;28;20021;-72
2023/09/17 04:12:29;;;;;;;16.08;9.82;;;;;;;;;;5060964;28;20013;-73
2023/09/17 04:14:55;;;;;;;15.60;9.48;;;;;;;;;;5059435;28;20100;-72
2023/09/17 04:17:21;;;;;;;15.10;8.88;;;;;;;;;;5052704;28;20086;-71
2023/09/17 04:19:47;;;;;;;15.23;9.30;;;;;;;;;;5050499;28;20400;-74
2023/09/17 04:22:13;;;;;;;13.02;9.35;;;;;;;;;;5050106;28;20383;-72
2023/09/17 04:24:39;;;;;;;12.43;8.77;;;;;;;;;;5051551;28;20025;-72
2023/09/17 04:27:05;;;;;;;13.98;8.63;;;;;;;;;;5051837;28;20492;-73
2023/09/17 04:29:31;;;;;;;19.42;9.00;;;;;;;;;;5051095;28;20032;-71
2023/09/17 04:31:57;;;;;;;13.88;9.63;;;;;;;;;;5050398;28;20503;-71
2023/09/17 04:34:23;;;;;;;13.90;9.98;;;;;;;;;;5049679;28;20025;-70
2023/09/17 04:36:50;;;;;;;15.35;10.13;;;;;;;;;;5050759;28;20560;-70
2023/09/17 04:39:16;;;;;;;13.38;9.35;;;;;;;;;;5050738;28;20029;-70
2023/09/17 04:41:43;;;;;;;14.52;10.05;;;;;;;;;;5050382;28;20579;-73
2023/09/17 04:44:10;;;;;;;14.90;10.45;;;;;;;;;;5052838;28;20035;-71
2023/09/17 04:46:39;;;;;;;13.38;9.40;;;;;;;;;;5057541;28;20108;-72
2023/09/17 04:49:06;;;;;;;19.73;10.43;;;;;;;;;;5054137;28;20074;-70
2023/09/17 04:51:32;;;;;;;14.88;9.80;;;;;;;;;;5051798;28;20028;-71
2023/09/17 04:53:58;;;;;;;14.02;9.55;;;;;;;;;;5053754;28;20025;-72
2023/09/17 04:56:24;;;;;;;13.40;9.10;;;;;;;;;;5064059;28;20051;-70
2023/09/17 04:58:50;;;;;;;12.98;9.27;;;;;;;;;;5065133;28;20027;-70
2023/09/17 05:01:16;;;;;;;13.95;10.07;;;;;;;;;;5062644;28;20115;-71
2023/09/17 05:03:43;;;;;;;15.45;10.27;;;;;;;;;;5054633;28;20418;-71
2023/09/17 05:06:09;;;;;;;19.23;10.23;;;;;;;;;;5070753;28;20439;-72
2023/09/17 05:08:35;;;;;;;15.38;10.70;;;;;;;;;;5062578;28;20032;-71
2023/09/17 05:11:01;;;;;;;16.52;10.98;;;;;;;;;;5060171;28;20032;-71
2023/09/17 05:13:27;;;;;;;18.27;10.18;;;;;;;;;;5066902;28;20402;-72
2023/09/17 05:15:53;;;;;;;13.57;10.20;;;;;;;;;;5062044;28;20104;-73
2023/09/17 05:18:19;;;;;;;16.35;11.65;;;;;;;;;;5066091;28;20071;-72
2023/09/17 05:20:48;;;;;;;15.27;10.18;;;;;;;;;;5058277;28;20480;-70
2023/09/17 05:23:14;;;;;;;15.13;10.02;;;;;;;;;;5067157;28;20118;-71
2023/09/17 05:25:40;;;;;;;19.75;10.32;;;;;;;;;;5066301;28;20376;-71
2023/09/17 05:28:07;;;;;;;17.20;10.65;;;;;;;;;;5044105;28;20057;-71
2023/09/17 05:30:34;;;;;;;15.32;10.27;;;;;;;;;;5061689;28;20526;-70
2023/09/17 05:33:00;;;;;;;16.70;10.90;;;;;;;;;;5066626;28;20429;-70
2023/09/17 05:35:26;;;;;;;14.80;10.30;;;;;;;;;;5062414;28;20016;-70
2023/09/17 05:37:52;;;;;;;16.33;11.75;;;;;;;;;;5053700;28;20077;-71
2023/09/17 05:40:18;;;;;;;17.75;11.18;;;;;;;;;;5059614;28;20096;-71
2023/09/17 05:42:44;;;;;;;22.25;13.05;;;;;;;;;;5061145;28;20045;-70
2023/09/17 05:45:10;;;;;;;15.88;11.50;;;;;;;;;;5057563;28;20024;-71
2023/09/17 05:47:37;;;;;;;17.45;11.13;;;;;;;;;;5056497;28;20036;-70
2023/09/17 05:50:03;;;;;;;17.30;10.75;;;;;;;;;;5071012;28;20498;-71
2023/09/17 05:52:29;;;;;;;16.25;10.40;;;;;;;;;;5063307;28;20031;-71
2023/09/17 05:54:55;;;;;;;12.00;9.68;;;;;;;;;;5057785;28;20380;-72
2023/09/17 05:57:21;;;;;;;14.65;9.75;;;;;;;;;;5067046;28;20144;-71
2023/09/17 05:59:47;;;;;;;18.27;10.10;;;;;;;;;;5067632;28;20061;-72
2023/09/17 06:02:13;;;;;;;13.77;9.60;;;;;;;;;;5057933;28;20557;-71
2023/09/17 06:04:39;;;;;;;15.35;10.18;;;;;;;;;;5069322;28;20105;-72
2023/09/17 06:07:05;;;;;;;15.23;10.07;;;;;;;;;;5068853;28;20028;-72
2023/09/17 06:09:31;;;;;;;15.63;10.02;;;;;;;;;;5064951;28;20074;-74
2023/09/17 06:11:57;;;;;;;16.08;9.77;;;;;;;;;;5065467;28;20348;-74
2023/09/17 06:14:24;;;;;;;19.10;9.88;;;;;;;;;;5065444;28;20195;-70
2023/09/17 06:16:50;;;;;;;15.40;10.32;;;;;;;;;;5054866;28;20079;-70
2023/09/17 06:19:16;;;;;;;17.30;10.52;;;;;;;;;;5053954;28;20491;-70
2023/09/17 06:21:42;;;;;;;14.88;9.98;;;;;;;;;;5053740;28;20483;-70
2023/09/17 06:24:08;;;;;;;17.15;10.27;;;;;;;;;;5053388;28;20041;-71
2023/09/17 06:26:35;;;;;;;15.57;9.68;;;;;;;;;;5053869;28;20036;-71
2023/09/17 06:29:01;;;;;;;14.07;10.00;;;;;;;;;;5053975;28;20017;-70
2023/09/17 06:31:27;;;;;;;13.18;9.60;;;;;;;;;;5053594;28;20024;-71
2023/09/17 06:33:54;;;;;;;16.38;10.98;;;;;;;;;;5053363;28;20356;-70
2023/09/17 06:36:20;;;;;;;15.93;10.75;;;;;;;;;;5053685;28;20017;-69
2023/09/17 06:38:49;;;;;;;15.77;10.23;;;;;;;;;;5053453;28;20731;-71
2023/09/17 06:41:15;;;;;;;15.88;9.70;;;;;;;;;;5053457;28;20032;-70
2023/09/17 06:43:41;;;;;;;13.45;9.77;;;;;;;;;;5052795;28;20027;-70
2023/09/17 06:46:07;;;;;;;16.58;10.60;;;;;;;;;;5053253;28;20069;-70
2023/09/17 06:48:32;;;;;;;16.50;9.65;;;;;;;;;;5052977;28;20017;-71
2023/09/17 06:50:59;;;;;;;14.20;10.10;;;;;;;;;;5052179;28;20096;-71
2023/09/17 06:53:25;;;;;;;14.48;10.13;;;;;;;;;;5052147;28;20028;-71
2023/09/17 06:55:51;;;;;;;15.80;10.45;;;;;;;;;;5051794;28;20033;-70
2023/09/17 06:58:17;;;;;;;15.68;11.02;;;;;;;;;;5051846;28;20051;-71
2023/09/17 07:00:44;;;;;;;22.35;12.38;;;;;;;;;;5052097;28;20539;-71
2023/09/17 07:03:10;;;;;;;13.65;10.90;;;;;;;;;;5051989;28;20229;-71
2023/09/17 07:05:36;;;;;;;17.30;11.05;;;;;;;;;;5051861;28;20025;-70
2023/09/17 07:08:02;;;;;;;15.90;10.75;;;;;;;;;;5052066;28;20029;-71
2023/09/17 07:10:29;;;;;;;17.65;10.95;;;;;;;;;;5051973;28;20013;-72
2023/09/17 07:12:55;;;;;;;16.77;11.10;;;;;;;;;;5051719;28;20048;-74
2023/09/17 07:15:21;;;;;;;17.98;11.63;;;;;;;;;;5051742;28;20017;-71
2023/09/17 07:17:48;;;;;;;17.75;11.48;;;;;;;;;;5063236;28;20043;-76
2023/09/17 07:20:14;;;;;;;15.70;11.40;;;;;;;;;;5072006;28;20518;-71
2023/09/17 07:22:40;;;;;;;14.82;10.73;;;;;;;;;;5070630;28;20043;-72
2023/09/17 07:25:06;;;;;;;16.15;11.75;;;;;;;;;;5051403;28;20036;-71
2023/09/17 07:27:33;;;;;;;17.65;11.45;;;;;;;;;;5051987;28;20490;-71
2023/09/17 07:29:59;;;;;;;20.15;13.15;;;;;;;;;;5051724;28;20100;-72
2023/09/17 07:32:28;;;;;;;20.05;11.68;;;;;;;;;;5051687;28;20029;-72
2023/09/17 07:34:55;;;;;;;20.00;12.80;;;;;;;;;;5051248;28;20029;-72
2023/09/17 07:37:21;;;;;;;16.00;11.02;;;;;;;;;;5051585;28;20019;-71
2023/09/17 07:39:48;;;;;;;17.83;11.00;;;;;;;;;;5051577;28;20025;-72
2023/09/17 07:42:14;;;;;;;16.05;10.73;;;;;;;;;;5051240;28;20128;-72
2023/09/17 07:44:41;;;;;;;13.82;10.50;;;;;;;;;;5051401;28;20383;-72
2023/09/17 07:47:09;;;;;;;14.48;9.93;;;;;;;;;;5051802;28;20044;-72
2023/09/17 07:49:36;;;;;;;17.05;10.10;;;;;;;;;;5051221;28;20024;-72
2023/09/17 07:52:03;;;;;;;14.50;10.50;;;;;;;;;;5051902;28;20024;-72
2023/09/17 07:54:30;;;;;;;19.08;11.00;;;;;;;;;;5051988;28;20060;-73
2023/09/17 07:56:56;;;;;;;13.00;9.75;;;;;;;;;;5052690;28;20468;-73
2023/09/17 07:59:22;;;;;;;19.42;10.68;;;;;;;;;;5052018;28;20053;-72
2023/09/17 08:01:49;;;;;;;15.85;10.85;;;;;;;;;;5051456;28;20059;-72
2023/09/17 08:04:16;;;;;;;14.60;9.50;;;;;;;;;;5051690;28;20115;-73
2023/09/17 08:06:42;;;;;;;13.32;8.95;;;;;;;;;;5051962;28;20025;-72
2023/09/17 08:09:08;;;;;;;16.60;8.55;;;;;;;;;;5051721;28;20071;-71
2023/09/17 08:11:34;;;;;;;14.80;8.60;;;;;;;;;;5050909;28;20033;-70
2023/09/17 08:14:00;;;;;;;12.80;9.02;;;;;;;;;;5051192;28;20025;-70
2023/09/17 08:16:26;;;;;;;14.18;8.88;;;;;;;;;;5052397;28;20017;-70
2023/09/17 08:18:52;;;;;;;11.32;8.07;;;;;;;;;;5050889;28;20422;-71
2023/09/17 08:21:18;;;;;;;17.73;9.55;;;;;;;;;;5050828;28;20021;-71
2023/09/17 08:23:47;;;;;;;13.98;8.65;;;;;;;;;;5050597;28;20484;-71
2023/09/17 08:26:13;;;;;;;13.60;7.85;;;;;;;;;;5051179;28;20029;-71
2023/09/17 08:28:43;;;;;;;14.48;8.48;;;;;;;;;;5051157;28;20025;-73
2023/09/17 08:31:10;;;;;;;9.93;7.65;;;;;;;;;;5050840;28;20017;-72
2023/09/17 08:33:36;;;;;;;10.27;7.18;;;;;;;;;;5050813;28;20031;-72
2023/09/17 08:36:02;;;;;;;14.50;7.60;;;;;;;;;;5050540;28;20108;-73
2023/09/17 08:38:29;;;;;;;10.90;7.03;;;;;;;;;;5051044;28;20017;-70
2023/09/17 08:40:56;;;;;;;13.52;8.30;;;;;;;;;;5050308;28;20014;-73
2023/09/17 08:43:23;;;;;;;13.00;8.00;;;;;;;;;;5050808;28;20391;-70
2023/09/17 08:45:50;;;;;;;12.48;7.32;;;;;;;;;;5051301;28;20029;-73
2023/09/17 08:48:17;;;;;;;10.75;6.68;;;;;;;;;;5051914;28;20036;-71
2023/09/17 08:50:43;;;;;;;10.80;6.90;;;;;;;;;;5051330;28;20017;-70
2023/09/17 08:53:10;;;;;;;13.02;6.88;;;;;;;;;;5052522;28;20126;-71
2023/09/17 08:55:36;;;;;;;13.65;6.65;;;;;;;;;;5052948;28;20017;-74
2023/09/17 08:58:24;;;;;;;13.93;6.70;;;;;;;;;;5050500;28;20123;-72
2023/09/17 09:00:51;;;;;;;11.20;7.20;;;;;;;;;;5049747;28;20414;-71
2023/09/17 09:03:18;;;;;;;8.60;7.03;;;;;;;;;;5049802;28;20155;-71
2023/09/17 09:05:44;;;;;;;10.70;7.13;;;;;;;;;;5050180;28;20029;-71
2023/09/17 09:08:13;;;;;;;9.70;7.10;;;;;;;;;;5050430;28;20036;-71
2023/09/17 09:10:39;;;;;;;9.93;6.63;;;;;;;;;;5050415;28;20036;-71
2023/09/17 09:13:05;;;;;;;8.93;6.43;;;;;;;;;;5050307;28;20026;-71
2023/09/17 09:15:31;;;;;;;10.05;6.20;;;;;;;;;;5050214;28;20048;-71
2023/09/17 09:17:57;;;;;;;11.98;6.30;;;;;;;;;;5050224;28;20524;-72
2023/09/17 09:20:23;;;;;;;15.30;6.75;;;;;;;;;;5052188;28;20017;-72
2023/09/17 09:22:49;;;;;;;9.70;6.22;;;;;;;;;;5054437;28;20029;-72
2023/09/17 09:25:16;;;;;;;11.50;6.60;;;;;;;;;;5053673;28;20025;-71
2023/09/17 09:27:42;;;;;;;8.90;6.43;;;;;;;;;;5053983;28;20025;-72
2023/09/17 09:30:09;;;;;;;11.07;6.28;;;;;;;;;;5053694;28;20491;-71
2023/09/17 09:32:36;;;;;;;8.80;5.88;;;;;;;;;;5053584;28;20443;-73
2023/09/17 09:35:03;;;;;;;9.60;5.88;;;;;;;;;;5053596;28;20028;-71
2023/09/17 09:37:29;;;;;;;9.65;5.95;;;;;;;;;;5053735;28;20440;-72
2023/09/17 09:39:55;;;;;;;14.15;6.72;;;;;;;;;;5053639;28;20112;-71
2023/09/17 09:42:23;;;;;;;9.57;6.50;;;;;;;;;;5053726;28;20677;-74
2023/09/17 09:44:51;;;;;;;9.63;6.38;;;;;;;;;;5053284;28;20055;-72
2023/09/17 09:47:17;;;;;;;10.10;6.72;;;;;;;;;;5054170;28;20094;-71
2023/09/17 09:49:44;;;;;;;12.02;7.22;;;;;;;;;;5053510;28;20021;-73
2023/09/17 09:52:14;;;;;;;11.48;6.60;;;;;;;;;;5054493;28;20090;-72
2023/09/17 09:54:40;;;;;;;12.40;6.95;;;;;;;;;;5054413;28;20025;-70
2023/09/17 09:57:06;;;;;;;12.43;6.22;;;;;;;;;;5056300;28;20100;-71
2023/09/17 09:59:33;;;;;;;9.57;6.47;;;;;;;;;;5058975;28;20514;-71
2023/09/17 10:02:02;;;;;;;11.48;6.10;;;;;;;;;;5056751;28;20394;-74
2023/09/17 10:04:28;;;;;;;12.98;6.75;;;;;;;;;;5059784;28;20025;-70
2023/09/17 10:06:55;;;;;;;11.65;6.35;;;;;;;;;;5053076;28;20037;-71
2023/09/17 10:09:23;;;;;;;12.20;6.65;;;;;;;;;;5053355;28;20025;-72
2023/09/17 10:11:49;;;;;;;8.73;5.75;;;;;;;;;;5052898;28;20139;-71
2023/09/17 10:14:15;;;;;;;10.80;6.22;;;;;;;;;;5052924;28;20025;-71
2023/09/17 10:16:41;;;;;;;14.75;7.05;;;;;;;;;;5053637;28;20017;-71
2023/09/17 10:19:07;;;;;;;11.85;6.22;;;;;;;;;;5054166;28;20492;-71
2023/09/17 10:21:37;;;;;;;13.60;5.97;;;;;;;;;;5054717;28;20103;-76
2023/09/17 10:24:03;;;;;;;8.30;6.18;;;;;;;;;;5054181;28;20045;-73
2023/09/17 10:26:32;;;;;;;10.02;5.90;;;;;;;;;;5053662;28;20025;-72
2023/09/17 10:29:00;;;;;;;9.35;6.25;;;;;;;;;;5052748;28;20045;-73
2023/09/17 10:31:27;;;;;;;8.27;5.85;;;;;;;;;;5051160;28;20422;-74
2023/09/17 10:33:53;;;;;;;7.75;5.65;;;;;;;;;;5052002;28;20040;-73
2023/09/17 10:36:19;;;;;;;6.82;5.53;;;;;;;;;;5052447;28;20017;-74
2023/09/17 10:38:46;;;;;;;10.75;5.57;;;;;;;;;;5052562;28;20792;-73
2023/09/17 10:41:13;;;;;;;7.82;5.55;;;;;;;;;;5053100;28;20060;-76
2023/09/17 10:43:40;;;;;;;9.82;4.97;;;;;;;;;;5052797;28;20099;-72
2023/09/17 10:46:06;;;;;;;7.05;4.90;;;;;;;;;;5052207;28;20050;-72
2023/09/17 10:48:33;;;;;;;9.02;5.10;;;;;;;;;;5052296;28;20026;-71
2023/09/17 10:50:59;;;;;;;11.40;4.20;;;;;;;;;;5052254;28;20025;-70
2023/09/17 10:53:26;;;;;;;7.20;4.63;;;;;;;;;;5052178;28;20025;-72
2023/09/17 10:55:57;;;;;;;8.75;5.25;;;;;;;;;;5051702;28;20017;-71
2023/09/17 10:58:34;;;;;;;7.68;4.50;;;;;;;;;;5051715;28;20009;-72
2023/09/17 11:01:01;;;;;;;7.10;5.10;;;;;;;;;;5052055;28;20032;-74
2023/09/17 11:03:29;;;;;;;6.13;4.72;;;;;;;;;;5052067;28;20094;-74
2023/09/17 11:05:56;;;;;;;8.90;4.90;;;;;;;;;;5051791;28;20048;-73
2023/09/17 11:08:22;;;;;;;9.45;4.60;;;;;;;;;;5051792;28;20156;-73
2023/09/17 11:10:48;;;;;;;6.65;5.00;;;;;;;;;;5051754;28;20079;-72
2023/09/17 11:13:14;;;;;;;9.93;5.60;;;;;;;;;;5051611;28;20088;-75
2023/09/17 11:15:41;;;;;;;8.05;4.60;;;;;;;;;;5051795;28;20017;-73
2023/09/17 11:18:09;;;;;;;7.75;4.80;;;;;;;;;;5051841;28;20021;-71
2023/09/17 11:20:38;;;;;;;5.53;4.05;;;;;;;;;;5052015;28;20478;-73
2023/09/17 11:23:04;;;;;;;8.07;4.60;;;;;;;;;;5051898;28;20025;-73
2023/09/17 11:25:39;;;;;;;5.78;3.90;;;;;;;;;;5051812;28;20021;-74
2023/09/17 11:28:12;;;;;;;7.78;4.18;;;;;;;;;;5052354;28;20029;-71
2023/09/17 11:31:14;;;;;;;7.10;3.90;;;;;;;;;;5053125;28;20021;-72
2023/09/17 11:33:42;;;;;;;5.43;3.65;;;;;;;;;;4990702;28;20037;-74
2023/09/17 11:36:08;;;;;;;7.05;3.47;;;;;;;;;;5041182;28;20029;-73
2023/09/17 11:38:34;;;;;;;9.63;4.00;;;;;;;;;;5052560;28;20036;-72
2023/09/17 11:41:01;;;;;;;5.03;3.70;;;;;;;;;;5052169;28;20024;-72
2023/09/17 11:43:27;;;;;;;7.32;3.90;;;;;;;;;;5052223;28;20450;-70
2023/09/17 11:45:53;;;;;;;7.72;3.60;;;;;;;;;;5052275;28;20029;-72
2023/09/17 11:48:19;;;;;;;8.13;3.60;;;;;;;;;;5052431;28;20106;-72
2023/09/17 11:50:47;;;;;;;5.63;3.22;;;;;;;;;;5052466;28;20484;-71
2023/09/17 11:53:14;;;;;;;10.98;3.67;;;;;;;;;;5052146;28;20078;-71
2023/09/17 11:55:40;;;;;;;8.40;3.75;;;;;;;;;;5051243;28;20108;-72
2023/09/17 11:58:17;;;;;;;4.88;3.53;;;;;;;;;;5052154;28;20027;-71
2023/09/17 12:00:44;;;;;;;5.78;3.10;;;;;;;;;;5049795;28;20024;-71
2023/09/17 12:03:11;;;;;;;9.35;3.92;;;;;;;;;;5050238;28;20039;-75
2023/09/17 12:05:37;;;;;;;6.15;3.70;;;;;;;;;;5051079;28;20159;-72
2023/09/17 12:08:04;;;;;;;10.07;3.80;;;;;;;;;;5051920;28;20025;-72
2023/09/17 12:10:33;;;;;;;4.60;3.40;;;;;;;;;;5051440;28;20031;-72
2023/09/17 12:13:00;;;;;;;6.82;4.07;;;;;;;;;;5041018;28;20020;-73
2023/09/17 12:15:26;;;;;;;5.93;3.60;;;;;;;;;;5054272;28;20017;-72
2023/09/17 12:17:53;;;;;;;6.50;3.92;;;;;;;;;;5051992;28;20029;-70
2023/09/17 12:20:48;;;;;;;8.80;4.30;;;;;;;;;;5051955;28;20036;-72
2023/09/17 12:23:16;;;;;;;5.85;4.28;;;;;;;;;;5051040;28;20033;-73
2023/09/17 12:25:43;;;;;;;6.22;4.47;;;;;;;;;;5048882;28;20197;-72
2023/09/17 12:28:09;;;;;;;12.82;4.40;;;;;;;;;;5051762;28;20021;-71
2023/09/17 12:30:35;;;;;;;7.00;4.60;;;;;;;;;;5051540;28;20029;-71
2023/09/17 12:33:01;;;;;;;6.35;4.20;;;;;;;;;;5051371;28;20035;-70
2023/09/17 12:35:27;;;;;;;7.05;4.55;;;;;;;;;;5051417;28;20080;-71
2023/09/17 12:37:55;;;;;;;5.82;4.20;;;;;;;;;;5052279;28;20024;-70
2023/09/17 12:40:22;;;;;;;5.70;4.47;;;;;;;;;;5051520;28;20025;-71
2023/09/17 12:42:48;;;;;;;5.60;3.90;;;;;;;;;;5051578;28;20064;-72
2023/09/17 12:45:16;;;;;;;7.60;4.28;;;;;;;;;;5051540;28;20344;-71
2023/09/17 12:47:43;;;;;;;9.23;7.38;;;;;;;;;;5051892;28;20057;-74
2023/09/17 12:50:10;;;;;;;8.93;4.38;;;;;;;;;;5051559;28;20040;-72
2023/09/17 12:52:36;;;;;;;7.38;5.30;;;;;;;;;;5051008;28;20153;-71
2023/09/17 12:55:03;;;;;;;7.35;4.15;;;;;;;;;;5051800;28;20379;-71
2023/09/17 12:57:30;;;;;;;8.90;4.88;;;;;;;;;;5055216;28;20028;-71
2023/09/17 12:59:56;;;;;;;5.68;4.22;;;;;;;;;;5055521;28;20025;-70
2023/09/17 13:02:32;;;;;;;5.90;4.32;;;;;;;;;;5054763;28;20028;-72
2023/09/17 13:04:58;;;;;;;7.28;4.70;;;;;;;;;;5054763;28;20503;-73
2023/09/17 13:07:25;;;;;;;9.50;4.80;;;;;;;;;;5055124;28;20086;-73
2023/09/17 13:09:58;;;;;;;7.50;4.43;;;;;;;;;;5055259;28;20029;-75
2023/09/17 13:12:25;;;;;;;6.38;4.55;;;;;;;;;;5055105;28;20064;-73
2023/09/17 13:14:52;;;;;;;9.32;4.38;;;;;;;;;;5055144;28;20071;-73
2023/09/17 13:17:22;;;;;;;6.53;4.47;;;;;;;;;;5055120;28;20092;-74
2023/09/17 13:19:48;;;;;;;11.10;4.75;;;;;;;;;;5055147;28;20017;-73
2023/09/17 13:22:15;;;;;;;7.65;4.75;;;;;;;;;;5055296;28;20404;-72
2023/09/17 13:24:41;;;;;;;7.97;5.20;;;;;;;;;;5054776;28;20491;-73
2023/09/17 13:27:08;;;;;;;9.85;5.10;;;;;;;;;;5054975;28;20495;-74
2023/09/17 13:29:40;;;;;;;6.63;4.95;;;;;;;;;;5054880;28;20033;-74
2023/09/17 13:32:10;;;;;;;11.43;4.80;;;;;;;;;;5054296;28;20032;-73
2023/09/17 13:34:42;;;;;;;9.15;5.03;;;;;;;;;;5054340;28;20479;-73
2023/09/17 13:37:09;;;;;;;13.43;4.70;;;;;;;;;;5054772;28;20029;-73
2023/09/17 13:39:38;;;;;;;6.40;4.80;;;;;;;;;;5066291;28;20017;-72
2023/09/17 13:42:05;;;;;;;6.72;5.25;;;;;;;;;;5074504;28;20482;-73
2023/09/17 13:44:31;;;;;;;6.65;4.35;;;;;;;;;;5074060;28;20509;-72
2023/09/17 13:46:58;;;;;;;7.25;4.45;;;;;;;;;;5074432;28;20095;-71
2023/09/17 13:49:24;;;;;;;10.07;4.88;;;;;;;;;;5073549;28;20327;-74
2023/09/17 13:51:50;;;;;;;6.75;5.00;;;;;;;;;;5073942;28;20415;-72
2023/09/17 13:54:16;;;;;;;8.90;4.80;;;;;;;;;;5069702;28;20408;-71
2023/09/17 13:56:42;;;;;;;10.70;5.00;;;;;;;;;;5054528;28;20025;-73
2023/09/17 13:59:08;;;;;;;7.72;5.25;;;;;;;;;;5053745;28;20031;-73
2023/09/17 14:01:34;;;;;;;8.77;5.63;;;;;;;;;;5054194;28;20241;-71
2023/09/17 14:04:00;;;;;;;7.75;6.10;;;;;;;;;;5053785;28;20067;-72
2023/09/17 14:06:26;;;;;;;8.43;5.80;;;;;;;;;;5052608;28;20029;-72
2023/09/17 14:08:52;;;;;;;9.13;5.43;;;;;;;;;;5054273;28;20031;-73
2023/09/17 14:11:18;;;;;;;7.72;5.70;;;;;;;;;;5054010;28;20025;-73
2023/09/17 14:13:44;;;;;;;6.72;5.07;;;;;;;;;;5053584;28;20098;-71
2023/09/17 14:16:10;;;;;;;8.20;5.18;;;;;;;;;;5053807;28;20505;-72
2023/09/17 14:18:36;;;;;;;10.25;5.38;;;;;;;;;;5054424;28;20050;-73
2023/09/17 14:21:03;;;;;;;9.27;5.75;;;;;;;;;;5053703;28;20757;-73
2023/09/17 14:23:29;;;;;;;12.40;6.28;;;;;;;;;;5053742;28;20108;-72
2023/09/17 14:25:55;;;;;;;8.68;5.63;;;;;;;;;;5054367;28;20057;-73